createdAt,value
2019-04-25T00:00:06.474Z,0.53
2019-04-25T00:05:15.436Z,0.72
2019-04-25T00:10:24.486Z,0.73
2019-04-25T00:15:33.429Z,0.64
2019-04-25T00:20:43.524Z,0.66
2019-04-25T00:25:51.312Z,0.76
2019-04-25T00:30:59.390Z,0.69
2019-04-25T00:36:08.327Z,0.66
2019-04-25T00:41:17.286Z,0.64
2019-04-25T00:46:26.315Z,0.73
2019-04-25T00:51:35.246Z,0.99
2019-04-25T00:56:46.085Z,0.74
2019-04-25T01:01:53.271Z,0.67
2019-04-25T01:07:01.513Z,0.81
2019-04-25T01:12:11.553Z,0.71
2019-04-25T01:17:18.776Z,0.93
2019-04-25T01:22:27.715Z,0.93
2019-04-25T01:27:36.643Z,0.98
2019-04-25T01:32:46.668Z,1.10
2019-04-25T01:37:54.926Z,0.77
2019-04-25T01:43:03.731Z,1.08
2019-04-25T01:48:11.270Z,0.92
2019-04-25T01:53:20.190Z,0.86
2019-04-25T01:58:29.123Z,1.03
2019-04-25T02:03:38.038Z,0.74
2019-04-25T02:08:49.019Z,0.78
2019-04-25T02:13:47.915Z,0.85
2019-04-25T02:18:57.739Z,0.98
2019-04-25T02:24:05.646Z,0.84
2019-04-25T02:29:13.919Z,1.15
2019-04-25T02:34:25.053Z,0.84
2019-04-25T02:39:31.311Z,1.04
2019-04-25T02:44:40.243Z,1.20
2019-04-25T02:49:49.265Z,1.05
2019-04-25T02:54:59.013Z,1.21
2019-04-25T03:00:08.362Z,1.19
2019-04-25T03:05:15.241Z,1.19
2019-04-25T03:10:26.658Z,0.73
2019-04-25T03:15:34.245Z,0.92
2019-04-25T03:20:41.134Z,0.95
2019-04-25T03:25:50.080Z,1.11
2019-04-25T03:31:01.422Z,1.09
2019-04-25T03:36:09.232Z,0.88
2019-04-25T03:41:16.678Z,0.86
2019-04-25T03:46:25.690Z,1.00
2019-04-25T03:51:34.618Z,0.93
2019-04-25T03:56:51.950Z,0.99
2019-04-25T04:01:53.602Z,0.98
2019-04-25T04:07:00.590Z,0.93
2019-04-25T04:12:10.087Z,0.94
2019-04-25T04:17:17.970Z,0.99
2019-04-25T04:22:26.913Z,0.86
2019-04-25T04:27:35.866Z,0.92
2019-04-25T04:32:44.806Z,0.74
2019-04-25T04:37:54.173Z,0.93
2019-04-25T04:43:02.233Z,1.06
2019-04-25T04:48:11.163Z,0.72
2019-04-25T04:53:20.158Z,1.04
2019-04-25T04:58:29.082Z,0.73
2019-04-25T05:03:38.015Z,0.90
2019-04-25T05:08:46.942Z,0.68
2019-04-25T05:13:56.028Z,1.16
2019-04-25T05:19:04.936Z,0.96
2019-04-25T05:24:15.262Z,0.84
2019-04-25T05:29:23.394Z,0.59
2019-04-25T05:34:30.800Z,0.68
2019-04-25T05:39:39.731Z,0.97
2019-04-25T05:44:48.663Z,0.68
2019-04-25T05:49:57.609Z,0.69
2019-04-25T05:55:06.538Z,0.91
2019-04-25T06:00:16.641Z,0.72
2019-04-25T06:05:26.413Z,0.99
2019-04-25T06:10:33.864Z,0.94
2019-04-25T06:15:40.946Z,0.68
2019-04-25T06:20:49.900Z,0.66
2019-04-25T06:25:58.818Z,0.83
2019-04-25T06:31:10.306Z,0.78
2019-04-25T06:36:16.247Z,0.85
2019-04-25T06:41:26.837Z,0.75
2019-04-25T06:46:33.918Z,0.60
2019-04-25T06:51:44.019Z,0.80
2019-04-25T06:56:51.190Z,0.76
2019-04-25T07:02:00.134Z,0.96
2019-04-25T07:07:11.989Z,0.97
2019-04-25T07:12:17.625Z,0.85
2019-04-25T07:17:26.622Z,0.97
2019-04-25T07:22:36.244Z,0.59
2019-04-25T07:27:44.766Z,0.74
2019-04-25T07:32:54.038Z,0.61
2019-04-25T07:38:01.118Z,0.63
2019-04-25T07:43:10.035Z,0.68
2019-04-25T07:48:18.995Z,0.40
2019-04-25T07:53:30.024Z,0.60
2019-04-25T07:58:45.505Z,0.43
2019-04-25T08:03:44.966Z,0.60
2019-04-25T08:08:54.605Z,0.25
2019-04-25T08:14:03.432Z,0.43
2019-04-25T08:19:11.023Z,1.44
2019-04-25T08:24:20.059Z,1.44
2019-04-25T08:29:29.024Z,0.50
2019-04-25T08:34:38.608Z,0.54
2019-04-25T08:39:46.458Z,0.66
2019-04-25T08:44:55.504Z,0.46
2019-04-25T08:50:04.493Z,0.54
2019-04-25T08:55:14.281Z,0.36
2019-04-25T09:00:24.106Z,0.29
2019-04-25T09:05:32.666Z,0.32
2019-04-25T09:10:40.148Z,0.33
2019-04-25T09:15:48.450Z,0.40
2019-04-25T09:20:58.306Z,0.58
2019-04-25T09:26:07.270Z,0.56
2019-04-25T09:31:16.278Z,0.39
2019-04-25T09:36:25.212Z,0.37
2019-04-25T09:41:34.171Z,0.41
2019-04-25T09:46:44.124Z,0.51
2019-04-25T09:51:53.335Z,0.47
2019-04-25T09:57:01.159Z,0.35
2019-04-25T10:02:10.111Z,0.55
2019-04-25T10:07:19.059Z,0.58
2019-04-25T10:12:27.970Z,0.52
2019-04-25T10:17:37.727Z,0.44
2019-04-25T10:22:45.683Z,0.41
2019-04-25T10:27:53.866Z,0.44
2019-04-25T10:33:04.091Z,0.47
2019-04-25T10:38:11.307Z,0.35
2019-04-25T10:43:21.658Z,0.48
2019-04-25T10:48:28.686Z,0.43
2019-04-25T10:53:37.617Z,0.37
2019-04-25T10:58:46.816Z,0.35
2019-04-25T11:03:55.792Z,0.31
2019-04-25T11:09:04.024Z,0.40
2019-04-25T11:14:13.544Z,0.36
2019-04-25T11:19:21.442Z,0.33
2019-04-25T11:24:30.363Z,0.59
2019-04-25T11:29:39.407Z,0.40
2019-04-25T11:34:48.327Z,0.34
2019-04-25T11:39:57.314Z,0.20
2019-04-25T11:45:06.234Z,0.27
2019-04-25T11:50:15.179Z,0.32
2019-04-25T11:55:24.111Z,0.29
2019-04-25T12:00:33.760Z,0.22
2019-04-25T12:05:42.928Z,0.31
2019-04-25T12:10:50.235Z,0.26
2019-04-25T12:15:59.166Z,0.30
2019-04-25T12:21:08.106Z,0.23
2019-04-25T12:26:17.054Z,0.29
2019-04-25T12:31:26.045Z,0.34
2019-04-25T12:36:34.975Z,0.42
2019-04-25T12:41:45.722Z,0.46
2019-04-25T12:46:54.009Z,0.23
2019-04-25T12:52:00.903Z,0.29
2019-04-25T12:57:09.850Z,0.37
2019-04-25T13:02:18.782Z,0.31
2019-04-25T13:07:27.732Z,0.28
2019-04-25T13:12:36.650Z,0.25
2019-04-25T13:17:45.592Z,0.26
2019-04-25T13:22:55.747Z,0.21
2019-04-25T13:28:03.790Z,0.34
2019-04-25T13:33:13.067Z,0.25
2019-04-25T13:38:19.922Z,0.22
2019-04-25T13:43:28.866Z,0.27
2019-04-25T13:48:37.811Z,0.42
2019-04-25T13:53:46.735Z,0.28
2019-04-25T13:58:55.694Z,0.35
2019-04-25T14:04:04.622Z,0.38
2019-04-25T14:09:13.630Z,0.53
2019-04-25T14:14:24.472Z,0.23
2019-04-25T14:19:33.269Z,0.18
2019-04-25T14:24:40.547Z,0.13
2019-04-25T14:29:49.519Z,0.13
2019-04-25T14:34:58.454Z,0.22
2019-04-25T14:40:07.387Z,0.18
2019-04-25T14:45:16.363Z,0.18
2019-04-25T14:50:25.541Z,0.19
2019-04-25T14:55:34.395Z,0.30
2019-04-25T15:00:43.334Z,0.21
2019-04-25T15:05:52.350Z,0.28
2019-04-25T15:11:01.298Z,0.32
2019-04-25T15:16:10.307Z,0.36
2019-04-25T15:21:19.253Z,0.32
2019-04-25T15:26:28.984Z,0.29
2019-04-25T15:31:36.807Z,0.37
2019-04-25T15:36:45.844Z,0.26
2019-04-25T15:41:54.782Z,0.22
2019-04-25T15:47:03.830Z,0.35
2019-04-25T15:52:12.803Z,0.40
2019-04-25T15:57:21.798Z,0.24
2019-04-25T16:02:30.760Z,0.20
2019-04-25T16:07:40.560Z,0.24
2019-04-25T16:12:48.179Z,0.24
2019-04-25T16:17:57.226Z,0.27
2019-04-25T16:23:06.206Z,0.29
2019-04-25T16:28:15.231Z,0.36
2019-04-25T16:33:24.182Z,0.35
2019-04-25T16:38:33.387Z,0.40
2019-04-25T16:43:43.078Z,0.25
2019-04-25T16:48:50.623Z,0.26
2019-04-25T16:53:59.590Z,0.19
2019-04-25T16:59:08.594Z,0.29
2019-04-25T17:04:19.867Z,0.29
2019-04-25T17:09:26.108Z,0.27
2019-04-25T17:14:35.354Z,0.17
2019-04-25T17:19:44.062Z,0.29
2019-04-25T17:24:52.998Z,0.25
2019-04-25T17:30:01.983Z,0.22
2019-04-25T17:35:10.922Z,0.27
2019-04-25T17:40:19.945Z,0.18
2019-04-25T17:45:28.928Z,0.24
2019-04-25T17:50:37.930Z,0.32
2019-04-25T17:55:46.882Z,0.24
2019-04-25T18:00:55.906Z,0.28
2019-04-25T18:06:04.834Z,0.20
2019-04-25T18:11:14.250Z,0.25
2019-04-25T18:16:23.162Z,0.29
2019-04-25T18:21:32.170Z,0.25
2019-04-25T18:26:41.349Z,0.35
2019-04-25T18:31:50.131Z,0.41
2019-04-25T18:36:59.051Z,0.34
2019-04-25T18:42:08.172Z,0.22
2019-04-25T18:47:16.986Z,0.17
2019-04-25T18:52:26.038Z,0.18
2019-04-25T18:57:34.966Z,0.13
2019-04-25T19:02:43.988Z,0.24
2019-04-25T19:07:52.858Z,0.24
2019-04-25T19:13:12.116Z,0.24
2019-04-25T19:18:10.302Z,0.14
2019-04-25T19:23:19.266Z,0.20
2019-04-25T19:28:28.359Z,0.22
2019-04-25T19:33:37.291Z,0.26
2019-04-25T19:38:46.236Z,0.32
2019-04-25T19:43:55.159Z,0.22
2019-04-25T19:49:04.095Z,0.12
2019-04-25T19:54:13.018Z,0.23
2019-04-25T19:59:22.206Z,0.16
2019-04-25T20:04:31.137Z,0.18
2019-04-25T20:09:40.070Z,0.27
2019-04-25T20:14:49.223Z,0.18
2019-04-25T20:19:58.026Z,0.22
2019-04-25T20:25:06.970Z,0.23
2019-04-25T20:30:15.949Z,0.25
2019-04-25T20:35:24.890Z,0.25
2019-04-25T20:40:33.861Z,0.24
2019-04-25T20:45:42.778Z,0.32
2019-04-25T20:50:52.453Z,0.26
2019-04-25T20:56:00.265Z,0.27
2019-04-25T21:01:09.270Z,0.31
2019-04-25T21:06:18.234Z,0.34
2019-04-25T21:11:27.254Z,0.29
2019-04-25T21:16:36.219Z,0.33
2019-04-25T21:21:45.194Z,0.24
2019-04-25T21:26:54.642Z,0.33
2019-04-25T21:32:02.660Z,0.40
2019-04-25T21:37:11.610Z,0.34
2019-04-25T21:42:20.570Z,0.26
2019-04-25T21:47:29.514Z,0.45
2019-04-25T21:52:38.458Z,0.50
2019-04-25T21:57:47.491Z,0.53
2019-04-25T22:02:56.459Z,0.45
2019-04-25T22:08:05.443Z,0.43
2019-04-25T22:13:16.741Z,0.45
2019-04-25T22:18:23.296Z,0.54
2019-04-25T22:23:32.274Z,0.52
2019-04-25T22:28:41.203Z,0.59
2019-04-25T22:33:50.158Z,0.68
2019-04-25T22:39:00.009Z,0.58
2019-04-25T22:44:07.915Z,0.65
2019-04-25T22:49:16.125Z,0.58
2019-04-25T22:54:25.077Z,0.47
2019-04-25T22:59:34.254Z,0.53
2019-04-25T23:04:43.198Z,0.45
2019-04-25T23:09:52.158Z,0.50
2019-04-25T23:15:01.162Z,0.76
2019-04-25T23:20:10.131Z,0.51
2019-04-25T23:25:19.083Z,0.43
2019-04-25T23:30:28.015Z,0.56
2019-04-25T23:35:37.006Z,0.62
2019-04-25T23:40:45.934Z,0.83
2019-04-25T23:45:54.952Z,0.93
2019-04-25T23:51:03.822Z,0.78
2019-04-25T23:56:13.156Z,0.80
